Les articles d'ExpertMaritime.pro


Votre expert maritime indépendant Xavier Braive est disponible sur la zone de Meschers-sur-Gironde - Port de Meschers - 17132

(Charente-Maritime - Poitou-Charentes)


Voir plan
Situation :

Le Port de Meschers, situé sur la rive droite de la Gironde près de son embouchure, est abrité par tous temps.

Il comprend :

- Un avant-chenal de 250 m de long, large de 8 m qui fait un angle de 8° W avec le Nord vrai, creusé à la cote + 0,50 m ; le vieux havre d’échouage ou « chenal » équipé de quai, cales en 1861.

- Un bassin d’échouage créé 1985 de 121 places sur pontons flottants, creuse à la cote + 1 m.

- Un bassin à flot mis en service en 1990, de 121 places à l’origine, 116 aujourd’hui (on y a placé des bateaux plus grands que prévu), en arrière d’une porte-écluse, T.E. 2,50 m ; le seuil de l’écluse est à la cote + 2 m ; les portes ouvrent quand la mer atteint le niveau + 3,50 m, avec 1,50 m d’eau sur le seuil (les cotes se réfèrent au niveau 0 des cartes marines).
Lat. 45° 33?, 3 N – Long. 00° 56?, 6 W ; carte SHOM 7029.
Distances : LE VERDON : 3,5 M. – ROYAN : 5 M. – PAUILLAC : 23 M. – BORDEAUX : 48 M.

- Une zone de mouillage, ouverte d’Avril à Septembre, de 22 corps morts, sur les vases à l’est du chenal d’accès.

Pratique :

Ville de Meschers : Location des anneaux.
Capitainerie, Tél.: 05.46.02.56.89 – VHF canal 9 –
n° de Fax 05 46 02 34 77 - GSM 06 15 11 23 10
Monsieur KERDUDOU est le capitaine assermenté du port.

SAUVETAGE :
CROSS ETEL, Tél.: O2 .97.553.535.
De juin à septembre Poste de Secours – Plage des Nonnes,
Tél. : 05.46.02.72.92, situé à 1 mille au nord du Port.
Météo affichée à la Capitainerie.
Météo locale sur la zone Port de Meschers
Heure (UTC) Dir.Vent Vit.Vent (nds) Force (Bft) T°min T°max P (mb) Hum.Rel.
23/04/2021 - 09:00:00 au 23/04/2021 - 12:00:00 108° (ESE) 10 3 20°C 22°C 1020 35 %
23/04/2021 - 12:00:00 au 23/04/2021 - 15:00:00 123° (ESE) 8 3 21°C 22°C 1019 38 %
23/04/2021 - 15:00:00 au 23/04/2021 - 18:00:00 127° (SE) 4 2 19°C 20°C 1018 51 %
23/04/2021 - 18:00:00 au 23/04/2021 - 21:00:00 069° (ENE) 9 3 14°C 14°C 1018 74 %
23/04/2021 - 21:00:00 au 24/04/2021 - 00:00:00 108° (ESE) 8 3 13°C 13°C 1018 70 %
24/04/2021 - 00:00:00 au 24/04/2021 - 03:00:00 122° (ESE) 9 3 12°C 12°C 1017 61 %
24/04/2021 - 03:00:00 au 24/04/2021 - 06:00:00 113° (ESE) 9 3 12°C 12°C 1017 63 %
24/04/2021 - 06:00:00 au 24/04/2021 - 09:00:00 120° (ESE) 10 3 16°C 16°C 1017 52 %
24/04/2021 - 09:00:00 au 24/04/2021 - 12:00:00 123° (ESE) 9 3 20°C 20°C 1016 44 %
24/04/2021 - 12:00:00 au 24/04/2021 - 15:00:00 110° (ESE) 8 3 22°C 22°C 1015 40 %
24/04/2021 - 15:00:00 au 24/04/2021 - 18:00:00 093° (E) 6 2 19°C 19°C 1015 58 %
24/04/2021 - 18:00:00 au 24/04/2021 - 21:00:00 077° (ENE) 8 3 15°C 15°C 1016 68 %
24/04/2021 - 21:00:00 au 25/04/2021 - 00:00:00 107° (ESE) 7 3 14°C 14°C 1016 69 %
25/04/2021 - 00:00:00 au 25/04/2021 - 03:00:00 089° (E) 8 3 13°C 13°C 1015 65 %
25/04/2021 - 03:00:00 au 25/04/2021 - 06:00:00 080° (E) 9 3 12°C 12°C 1015 64 %
25/04/2021 - 06:00:00 au 25/04/2021 - 09:00:00 088° (E) 10 3 16°C 16°C 1015 56 %
25/04/2021 - 09:00:00 au 25/04/2021 - 12:00:00 104° (ESE) 10 3 19°C 19°C 1014 47 %
25/04/2021 - 12:00:00 au 25/04/2021 - 15:00:00 142° (SE) 8 3 19°C 19°C 1012 51 %
25/04/2021 - 15:00:00 au 25/04/2021 - 18:00:00 079° (E) 5 2 18°C 18°C 1012 65 %
25/04/2021 - 18:00:00 au 25/04/2021 - 21:00:00 096° (E) 4 2 16°C 16°C 1012 67 %
25/04/2021 - 21:00:00 au 26/04/2021 - 00:00:00 056° (NE) 9 3 15°C 15°C 1011 74 %
26/04/2021 - 00:00:00 au 26/04/2021 - 03:00:00 073° (ENE) 7 3 14°C 14°C 1009 77 %
26/04/2021 - 03:00:00 au 26/04/2021 - 06:00:00 059° (ENE) 9 3 13°C 13°C 1008 75 %
26/04/2021 - 06:00:00 au 26/04/2021 - 09:00:00 095° (E) 9 3 16°C 16°C 1008 55 %
26/04/2021 - 09:00:00 au 26/04/2021 - 12:00:00 093° (E) 8 3 19°C 19°C 1006 53 %
26/04/2021 - 12:00:00 au 26/04/2021 - 15:00:00 084° (E) 7 3 20°C 20°C 1004 50 %
26/04/2021 - 15:00:00 au 26/04/2021 - 18:00:00 132° (SE) 7 3 14°C 14°C 1005 85 %
26/04/2021 - 18:00:00 au 26/04/2021 - 21:00:00 128° (SE) 4 2 13°C 13°C 1006 89 %
26/04/2021 - 21:00:00 au 27/04/2021 - 00:00:00 082° (E) 4 2 13°C 13°C 1005 89 %
27/04/2021 - 00:00:00 au 27/04/2021 - 03:00:00 075° (ENE) 4 2 13°C 13°C 1004 90 %
27/04/2021 - 03:00:00 au 27/04/2021 - 06:00:00 037° (NE) 5 2 13°C 13°C 1004 91 %
27/04/2021 - 06:00:00 au 27/04/2021 - 09:00:00 001° (N) 8 3 13°C 13°C 1005 88 %
27/04/2021 - 09:00:00 au 27/04/2021 - 12:00:00 001° (N) 8 3 14°C 14°C 1005 77 %
27/04/2021 - 12:00:00 au 27/04/2021 - 15:00:00 359° (N) 10 3 16°C 16°C 1005 66 %
27/04/2021 - 15:00:00 au 27/04/2021 - 18:00:00 313° (NW) 9 3 14°C 14°C 1006 74 %
27/04/2021 - 18:00:00 au 27/04/2021 - 21:00:00 333° (NNW) 6 2 11°C 11°C 1007 82 %
27/04/2021 - 21:00:00 au 28/04/2021 - 00:00:00 012° (NNE) 8 3 9°C 9°C 1007 82 %
28/04/2021 - 00:00:00 au 28/04/2021 - 03:00:00 022° (NNE) 6 2 8°C 8°C 1007 84 %
28/04/2021 - 03:00:00 au 28/04/2021 - 06:00:00 019° (NNE) 6 2 8°C 8°C 1008 84 %
28/04/2021 - 06:00:00 au 28/04/2021 - 09:00:00 015° (NNE) 5 2 13°C 13°C 1008 65 %
openweathermap
Ces informations sont partiellement extraites de Wikipedia, et des sites pertinents pour cette zone. Compilation d'informations de Xavier Braive.
Xavier Braive, Expert Maritime Plaisance se déplace sur Port de Meschers, Meschers-sur-Gironde, 17132, Charente-Maritime

Welcome to Cross-Channel yachtmen !

we can deliver survey reports in english, in case of dammage or prior to buy / sell a boat in France (pre-purchase survey), and more specifically on the Atlantic coast.

Uw onafhankelijk jachtexpert

verkrijkbaar op de Atlantische kust, bij aankoop of reparatie van jachten (metaal, polyester of composiet). Rapporten in Nederlands

BRAIVE, Xavier
Xavier Braive
Expert Maritime
Nouvelle Aquitaine
France
06 71 50 20 17